Terminal Aerodrome Forecast
Issued by NWS

Home | Current Version | Previous Version | Text Only | Print | Product List | Glossary On
Versions: 1 2 3 4 5 6 7 8 9 10 11 12
000
FTUS43 KIWX 291120
TAFSBN
TAF
KSBN 291120Z 2912/3012 02012KT P6SM -SHRA BKN010 BKN045
     FM291500 05011KT P6SM VCSH OVC020
     FM291900 05012KT P6SM VCSH OVC040
     FM292200 04012KT 6SM SHRA OVC030
     FM300000 04012KT 3SM -SHRA BR OVC008=

USA.gov is the U.S. government's official web portal to all federal, state and local government web resources and services.